sensor_id;sensor_type;location;lat;lon;timestamp;P1;durP1;ratioP1;P2;durP2;ratioP2
16147;SDS011;8179;59.364;18.018;2023-07-09T00:01:39;725.00;;;688.88;;
16147;SDS011;8179;59.364;18.018;2023-07-09T00:04:08;616.33;;;588.20;;
16147;SDS011;8179;59.364;18.018;2023-07-09T00:06:35;610.10;;;582.35;;
16147;SDS011;8179;59.364;18.018;2023-07-09T00:09:01;669.72;;;638.25;;
16147;SDS011;8179;59.364;18.018;2023-07-09T00:11:29;711.40;;;676.10;;
16147;SDS011;8179;59.364;18.018;2023-07-09T00:13:56;682.20;;;649.97;;
16147;SDS011;8179;59.364;18.018;2023-07-09T00:16:23;693.72;;;659.95;;
16147;SDS011;8179;59.364;18.018;2023-07-09T00:18:50;718.90;;;683.03;;
16147;SDS011;8179;59.364;18.018;2023-07-09T00:21:18;711.20;;;676.42;;
16147;SDS011;8179;59.364;18.018;2023-07-09T00:23:45;702.90;;;669.28;;
16147;SDS011;8179;59.364;18.018;2023-07-09T00:26:14;634.53;;;605.83;;
16147;SDS011;8179;59.364;18.018;2023-07-09T00:28:41;692.38;;;658.95;;
16147;SDS011;8179;59.364;18.018;2023-07-09T00:31:08;740.08;;;703.00;;
16147;SDS011;8179;59.364;18.018;2023-07-09T00:33:35;682.90;;;650.03;;
16147;SDS011;8179;59.364;18.018;2023-07-09T00:36:04;727.92;;;692.67;;
16147;SDS011;8179;59.364;18.018;2023-07-09T00:38:34;662.15;;;630.67;;
16147;SDS011;8179;59.364;18.018;2023-07-09T00:41:04;664.05;;;633.15;;
16147;SDS011;8179;59.364;18.018;2023-07-09T00:43:32;676.13;;;644.65;;
16147;SDS011;8179;59.364;18.018;2023-07-09T00:48:56;603.17;;;575.88;;
16147;SDS011;8179;59.364;18.018;2023-07-09T00:51:25;615.65;;;586.70;;
16147;SDS011;8179;59.364;18.018;2023-07-09T00:53:54;627.85;;;598.63;;
16147;SDS011;8179;59.364;18.018;2023-07-09T00:56:24;592.40;;;565.58;;
16147;SDS011;8179;59.364;18.018;2023-07-09T00:58:51;591.85;;;565.58;;
16147;SDS011;8179;59.364;18.018;2023-07-09T01:01:19;611.40;;;582.75;;
16147;SDS011;8179;59.364;18.018;2023-07-09T01:03:47;531.25;;;508.80;;
16147;SDS011;8179;59.364;18.018;2023-07-09T01:06:14;491.77;;;471.27;;
16147;SDS011;8179;59.364;18.018;2023-07-09T01:08:42;478.33;;;458.33;;
16147;SDS011;8179;59.364;18.018;2023-07-09T01:11:16;507.35;;;486.33;;
16147;SDS011;8179;59.364;18.018;2023-07-09T01:13:46;596.17;;;568.58;;
16147;SDS011;8179;59.364;18.018;2023-07-09T01:16:12;607.85;;;579.67;;
16147;SDS011;8179;59.364;18.018;2023-07-09T01:18:40;646.90;;;616.05;;
16147;SDS011;8179;59.364;18.018;2023-07-09T01:21:09;671.58;;;639.25;;
16147;SDS011;8179;59.364;18.018;2023-07-09T01:23:40;556.13;;;531.13;;
16147;SDS011;8179;59.364;18.018;2023-07-09T01:26:09;661.40;;;629.15;;
16147;SDS011;8179;59.364;18.018;2023-07-09T01:28:36;570.08;;;544.60;;
16147;SDS011;8179;59.364;18.018;2023-07-09T01:31:03;646.17;;;615.78;;
16147;SDS011;8179;59.364;18.018;2023-07-09T01:33:30;589.05;;;561.85;;
16147;SDS011;8179;59.364;18.018;2023-07-09T01:35:57;751.08;;;711.45;;
16147;SDS011;8179;59.364;18.018;2023-07-09T01:38:26;605.22;;;577.35;;
16147;SDS011;8179;59.364;18.018;2023-07-09T01:40:55;636.30;;;606.10;;
16147;SDS011;8179;59.364;18.018;2023-07-09T01:43:22;556.33;;;531.58;;
16147;SDS011;8179;59.364;18.018;2023-07-09T01:45:49;603.70;;;575.25;;
16147;SDS011;8179;59.364;18.018;2023-07-09T01:48:16;631.83;;;601.55;;
16147;SDS011;8179;59.364;18.018;2023-07-09T01:50:43;772.78;;;731.42;;
16147;SDS011;8179;59.364;18.018;2023-07-09T01:53:10;734.45;;;695.72;;
16147;SDS011;8179;59.364;18.018;2023-07-09T01:55:39;602.95;;;574.75;;
16147;SDS011;8179;59.364;18.018;2023-07-09T01:58:05;764.05;;;724.17;;
16147;SDS011;8179;59.364;18.018;2023-07-09T02:00:33;708.25;;;672.72;;
16147;SDS011;8179;59.364;18.018;2023-07-09T02:03:00;729.38;;;691.72;;
16147;SDS011;8179;59.364;18.018;2023-07-09T02:05:28;689.42;;;654.38;;
16147;SDS011;8179;59.364;18.018;2023-07-09T02:07:54;722.25;;;684.13;;
16147;SDS011;8179;59.364;18.018;2023-07-09T02:10:21;759.20;;;719.45;;
16147;SDS011;8179;59.364;18.018;2023-07-09T02:12:49;824.65;;;779.13;;
16147;SDS011;8179;59.364;18.018;2023-07-09T02:15:16;758.33;;;717.88;;
16147;SDS011;8179;59.364;18.018;2023-07-09T02:17:42;804.83;;;761.40;;
16147;SDS011;8179;59.364;18.018;2023-07-09T02:20:09;664.58;;;632.05;;
16147;SDS011;8179;59.364;18.018;2023-07-09T02:22:37;787.85;;;745.75;;
16147;SDS011;8179;59.364;18.018;2023-07-09T02:25:04;802.10;;;758.30;;
16147;SDS011;8179;59.364;18.018;2023-07-09T02:27:31;749.40;;;709.58;;
16147;SDS011;8179;59.364;18.018;2023-07-09T02:29:59;723.95;;;687.35;;
16147;SDS011;8179;59.364;18.018;2023-07-09T02:32:26;450.75;;;430.38;;
16147;SDS011;8179;59.364;18.018;2023-07-09T02:34:53;632.38;;;600.63;;
16147;SDS011;8179;59.364;18.018;2023-07-09T02:37:20;615.90;;;585.55;;
16147;SDS011;8179;59.364;18.018;2023-07-09T02:39:47;574.17;;;546.50;;
16147;SDS011;8179;59.364;18.018;2023-07-09T02:42:14;661.92;;;628.60;;
16147;SDS011;8179;59.364;18.018;2023-07-09T02:44:41;647.38;;;614.58;;
16147;SDS011;8179;59.364;18.018;2023-07-09T02:47:10;647.67;;;614.50;;
16147;SDS011;8179;59.364;18.018;2023-07-09T02:49:36;541.60;;;516.13;;
16147;SDS011;8179;59.364;18.018;2023-07-09T02:52:03;599.10;;;569.28;;
16147;SDS011;8179;59.364;18.018;2023-07-09T02:54:30;723.88;;;686.15;;
16147;SDS011;8179;59.364;18.018;2023-07-09T02:56:57;804.88;;;760.90;;
16147;SDS011;8179;59.364;18.018;2023-07-09T02:59:23;719.10;;;681.83;;
16147;SDS011;8179;59.364;18.018;2023-07-09T03:01:52;350.70;;;336.58;;
16147;SDS011;8179;59.364;18.018;2023-07-09T03:04:20;1153.75;;;999.90;;
16147;SDS011;8179;59.364;18.018;2023-07-09T03:06:46;1098.85;;;999.90;;
16147;SDS011;8179;59.364;18.018;2023-07-09T03:09:13;767.33;;;729.55;;
16147;SDS011;8179;59.364;18.018;2023-07-09T03:11:39;817.92;;;776.55;;
16147;SDS011;8179;59.364;18.018;2023-07-09T03:14:06;543.85;;;522.03;;
16147;SDS011;8179;59.364;18.018;2023-07-09T03:16:33;812.13;;;769.88;;
16147;SDS011;8179;59.364;18.018;2023-07-09T03:19:00;1142.97;;;999.90;;
16147;SDS011;8179;59.364;18.018;2023-07-09T03:21:29;1085.93;;;999.90;;
16147;SDS011;8179;59.364;18.018;2023-07-09T03:23:56;1007.22;;;944.35;;
16147;SDS011;8179;59.364;18.018;2023-07-09T03:26:23;1061.65;;;993.45;;
16147;SDS011;8179;59.364;18.018;2023-07-09T03:28:50;1045.00;;;978.53;;
16147;SDS011;8179;59.364;18.018;2023-07-09T03:31:16;1051.53;;;980.38;;
16147;SDS011;8179;59.364;18.018;2023-07-09T03:33:43;1141.18;;;999.90;;
16147;SDS011;8179;59.364;18.018;2023-07-09T03:36:10;906.92;;;856.45;;
16147;SDS011;8179;59.364;18.018;2023-07-09T03:38:37;936.15;;;881.65;;
16147;SDS011;8179;59.364;18.018;2023-07-09T03:41:04;949.92;;;893.30;;
16147;SDS011;8179;59.364;18.018;2023-07-09T03:43:31;1049.20;;;978.25;;
16147;SDS011;8179;59.364;18.018;2023-07-09T03:45:57;1064.85;;;992.55;;
16147;SDS011;8179;59.364;18.018;2023-07-09T03:48:24;1064.30;;;991.55;;
16147;SDS011;8179;59.364;18.018;2023-07-09T03:50:51;963.10;;;905.58;;
16147;SDS011;8179;59.364;18.018;2023-07-09T03:53:17;881.03;;;833.40;;
16147;SDS011;8179;59.364;18.018;2023-07-09T03:55:46;658.22;;;629.17;;
16147;SDS011;8179;59.364;18.018;2023-07-09T03:58:17;894.50;;;846.05;;
16147;SDS011;8179;59.364;18.018;2023-07-09T04:00:44;926.72;;;875.03;;
16147;SDS011;8179;59.364;18.018;2023-07-09T04:03:10;837.67;;;793.38;;
16147;SDS011;8179;59.364;18.018;2023-07-09T04:05:37;777.58;;;738.00;;
16147;SDS011;8179;59.364;18.018;2023-07-09T04:08:04;949.50;;;895.92;;
16147;SDS011;8179;59.364;18.018;2023-07-09T04:10:31;772.45;;;733.42;;
16147;SDS011;8179;59.364;18.018;2023-07-09T04:12:59;663.63;;;632.30;;
16147;SDS011;8179;59.364;18.018;2023-07-09T04:15:25;731.00;;;695.00;;
16147;SDS011;8179;59.364;18.018;2023-07-09T04:17:52;646.85;;;617.30;;
16147;SDS011;8179;59.364;18.018;2023-07-09T04:20:19;824.42;;;779.22;;
16147;SDS011;8179;59.364;18.018;2023-07-09T04:22:46;706.25;;;670.13;;
16147;SDS011;8179;59.364;18.018;2023-07-09T04:25:12;540.88;;;516.85;;
16147;SDS011;8179;59.364;18.018;2023-07-09T04:27:39;776.58;;;734.17;;
16147;SDS011;8179;59.364;18.018;2023-07-09T04:30:09;1999.90;;;999.90;;
16147;SDS011;8179;59.364;18.018;2023-07-09T04:32:36;1999.90;;;999.90;;
16147;SDS011;8179;59.364;18.018;2023-07-09T04:35:03;1999.90;;;999.90;;
16147;SDS011;8179;59.364;18.018;2023-07-09T04:37:30;1640.82;;;883.25;;
16147;SDS011;8179;59.364;18.018;2023-07-09T04:39:57;1718.07;;;955.05;;
16147;SDS011;8179;59.364;18.018;2023-07-09T04:42:23;1651.32;;;892.25;;
16147;SDS011;8179;59.364;18.018;2023-07-09T04:44:50;1999.90;;;999.90;;
16147;SDS011;8179;59.364;18.018;2023-07-09T04:47:18;1999.90;;;999.90;;
16147;SDS011;8179;59.364;18.018;2023-07-09T04:49:44;1648.97;;;890.28;;
16147;SDS011;8179;59.364;18.018;2023-07-09T04:52:11;1999.90;;;999.90;;
16147;SDS011;8179;59.364;18.018;2023-07-09T04:54:40;1999.90;;;999.90;;
16147;SDS011;8179;59.364;18.018;2023-07-09T04:57:08;1999.90;;;999.90;;
16147;SDS011;8179;59.364;18.018;2023-07-09T04:59:35;1999.90;;;999.90;;
16147;SDS011;8179;59.364;18.018;2023-07-09T05:02:01;1999.90;;;999.90;;
16147;SDS011;8179;59.364;18.018;2023-07-09T05:04:30;1999.90;;;999.90;;
16147;SDS011;8179;59.364;18.018;2023-07-09T05:06:58;1999.90;;;999.90;;
16147;SDS011;8179;59.364;18.018;2023-07-09T05:09:25;1999.90;;;999.90;;
16147;SDS011;8179;59.364;18.018;2023-07-09T05:11:51;1999.90;;;999.90;;
16147;SDS011;8179;59.364;18.018;2023-07-09T05:14:18;1684.80;;;921.15;;
16147;SDS011;8179;59.364;18.018;2023-07-09T05:16:44;1999.90;;;999.90;;
16147;SDS011;8179;59.364;18.018;2023-07-09T05:19:11;1999.90;;;999.90;;
16147;SDS011;8179;59.364;18.018;2023-07-09T05:21:39;1999.90;;;999.90;;
16147;SDS011;8179;59.364;18.018;2023-07-09T05:24:06;1999.90;;;999.90;;
16147;SDS011;8179;59.364;18.018;2023-07-09T05:26:32;1999.90;;;999.90;;
16147;SDS011;8179;59.364;18.018;2023-07-09T05:28:59;419.80;;;386.15;;
16147;SDS011;8179;59.364;18.018;2023-07-09T05:31:25;1652.28;;;890.67;;
16147;SDS011;8179;59.364;18.018;2023-07-09T05:33:52;1999.90;;;999.90;;
16147;SDS011;8179;59.364;18.018;2023-07-09T05:36:18;1999.90;;;999.90;;
16147;SDS011;8179;59.364;18.018;2023-07-09T05:38:46;1589.03;;;833.50;;
16147;SDS011;8179;59.364;18.018;2023-07-09T05:41:13;419.52;;;397.80;;
16147;SDS011;8179;59.364;18.018;2023-07-09T05:43:41;857.67;;;805.28;;
16147;SDS011;8179;59.364;18.018;2023-07-09T05:46:08;1100.68;;;999.90;;
16147;SDS011;8179;59.364;18.018;2023-07-09T05:48:34;1610.97;;;855.33;;
16147;SDS011;8179;59.364;18.018;2023-07-09T05:51:01;577.33;;;543.47;;
16147;SDS011;8179;59.364;18.018;2023-07-09T05:53:28;879.67;;;812.50;;
16147;SDS011;8179;59.364;18.018;2023-07-09T05:55:56;1999.90;;;999.90;;
16147;SDS011;8179;59.364;18.018;2023-07-09T05:58:23;1051.35;;;960.95;;
16147;SDS011;8179;59.364;18.018;2023-07-09T06:00:49;723.10;;;680.28;;
16147;SDS011;8179;59.364;18.018;2023-07-09T06:03:18;1999.90;;;999.90;;
16147;SDS011;8179;59.364;18.018;2023-07-09T06:05:45;1999.90;;;999.90;;
16147;SDS011;8179;59.364;18.018;2023-07-09T06:08:11;1999.90;;;999.90;;
16147;SDS011;8179;59.364;18.018;2023-07-09T06:10:38;1730.03;;;962.72;;
16147;SDS011;8179;59.364;18.018;2023-07-09T06:13:10;1999.90;;;999.90;;
16147;SDS011;8179;59.364;18.018;2023-07-09T06:15:36;1999.90;;;999.90;;
16147;SDS011;8179;59.364;18.018;2023-07-09T06:18:03;943.53;;;868.25;;
16147;SDS011;8179;59.364;18.018;2023-07-09T06:20:30;1999.90;;;999.90;;
16147;SDS011;8179;59.364;18.018;2023-07-09T06:22:56;1999.90;;;999.90;;
16147;SDS011;8179;59.364;18.018;2023-07-09T06:25:23;1999.90;;;999.90;;
16147;SDS011;8179;59.364;18.018;2023-07-09T06:27:49;1999.90;;;999.90;;
16147;SDS011;8179;59.364;18.018;2023-07-09T06:30:17;1999.90;;;999.90;;
16147;SDS011;8179;59.364;18.018;2023-07-09T06:32:44;1999.90;;;999.90;;
16147;SDS011;8179;59.364;18.018;2023-07-09T06:35:11;1999.90;;;999.90;;
16147;SDS011;8179;59.364;18.018;2023-07-09T06:37:37;1999.90;;;999.90;;
16147;SDS011;8179;59.364;18.018;2023-07-09T06:40:04;1999.90;;;999.90;;
16147;SDS011;8179;59.364;18.018;2023-07-09T06:42:33;1999.90;;;999.90;;
16147;SDS011;8179;59.364;18.018;2023-07-09T06:45:00;1999.90;;;999.90;;
16147;SDS011;8179;59.364;18.018;2023-07-09T06:47:28;1999.90;;;999.90;;
16147;SDS011;8179;59.364;18.018;2023-07-09T06:49:54;1999.90;;;999.90;;
16147;SDS011;8179;59.364;18.018;2023-07-09T06:52:21;1999.90;;;999.90;;
16147;SDS011;8179;59.364;18.018;2023-07-09T06:54:47;1999.90;;;999.90;;
16147;SDS011;8179;59.364;18.018;2023-07-09T06:57:15;1999.90;;;999.90;;
16147;SDS011;8179;59.364;18.018;2023-07-09T06:59:41;1999.90;;;999.90;;
16147;SDS011;8179;59.364;18.018;2023-07-09T07:02:08;1029.72;;;950.58;;
16147;SDS011;8179;59.364;18.018;2023-07-09T07:04:35;1152.03;;;999.90;;
16147;SDS011;8179;59.364;18.018;2023-07-09T07:07:02;1225.28;;;999.90;;
16147;SDS011;8179;59.364;18.018;2023-07-09T07:09:29;1999.90;;;999.90;;
16147;SDS011;8179;59.364;18.018;2023-07-09T07:11:55;1999.90;;;999.90;;
16147;SDS011;8179;59.364;18.018;2023-07-09T07:14:22;1744.78;;;975.05;;
16147;SDS011;8179;59.364;18.018;2023-07-09T07:16:48;638.25;;;597.75;;
16147;SDS011;8179;59.364;18.018;2023-07-09T07:19:15;1158.57;;;999.90;;
16147;SDS011;8179;59.364;18.018;2023-07-09T07:21:43;1103.45;;;996.95;;
16147;SDS011;8179;59.364;18.018;2023-07-09T07:24:09;818.92;;;771.92;;
16147;SDS011;8179;59.364;18.018;2023-07-09T07:26:36;492.92;;;463.60;;
16147;SDS011;8179;59.364;18.018;2023-07-09T07:29:02;708.90;;;661.20;;
16147;SDS011;8179;59.364;18.018;2023-07-09T07:31:29;695.10;;;647.55;;
16147;SDS011;8179;59.364;18.018;2023-07-09T07:33:55;718.30;;;678.13;;
16147;SDS011;8179;59.364;18.018;2023-07-09T07:36:22;943.50;;;884.45;;
16147;SDS011;8179;59.364;18.018;2023-07-09T07:38:49;941.00;;;873.50;;
16147;SDS011;8179;59.364;18.018;2023-07-09T07:41:16;891.47;;;838.45;;
16147;SDS011;8179;59.364;18.018;2023-07-09T07:43:42;952.03;;;893.53;;
16147;SDS011;8179;59.364;18.018;2023-07-09T07:46:09;958.67;;;889.53;;
16147;SDS011;8179;59.364;18.018;2023-07-09T07:48:35;876.78;;;827.85;;
16147;SDS011;8179;59.364;18.018;2023-07-09T07:51:02;875.25;;;826.50;;
16147;SDS011;8179;59.364;18.018;2023-07-09T07:53:29;957.35;;;900.90;;
16147;SDS011;8179;59.364;18.018;2023-07-09T07:55:57;999.95;;;937.50;;
16147;SDS011;8179;59.364;18.018;2023-07-09T07:58:24;1015.35;;;950.53;;
16147;SDS011;8179;59.364;18.018;2023-07-09T08:00:54;883.45;;;834.22;;
16147;SDS011;8179;59.364;18.018;2023-07-09T08:03:21;991.30;;;930.63;;
16147;SDS011;8179;59.364;18.018;2023-07-09T08:05:48;900.10;;;849.75;;
16147;SDS011;8179;59.364;18.018;2023-07-09T08:08:15;915.08;;;863.75;;
16147;SDS011;8179;59.364;18.018;2023-07-09T08:10:41;924.08;;;871.03;;
16147;SDS011;8179;59.364;18.018;2023-07-09T08:13:09;1019.92;;;957.95;;
16147;SDS011;8179;59.364;18.018;2023-07-09T08:15:36;1064.45;;;995.50;;
16147;SDS011;8179;59.364;18.018;2023-07-09T08:18:02;840.65;;;793.83;;
16147;SDS011;8179;59.364;18.018;2023-07-09T08:20:29;1011.60;;;950.35;;
16147;SDS011;8179;59.364;18.018;2023-07-09T08:22:55;1101.07;;;999.90;;
16147;SDS011;8179;59.364;18.018;2023-07-09T08:25:22;1106.05;;;999.90;;
16147;SDS011;8179;59.364;18.018;2023-07-09T08:27:48;1065.95;;;991.58;;
16147;SDS011;8179;59.364;18.018;2023-07-09T08:30:16;832.75;;;788.95;;
16147;SDS011;8179;59.364;18.018;2023-07-09T08:32:43;1031.97;;;967.17;;
16147;SDS011;8179;59.364;18.018;2023-07-09T08:35:09;923.70;;;871.55;;
16147;SDS011;8179;59.364;18.018;2023-07-09T08:37:37;1020.00;;;957.00;;
16147;SDS011;8179;59.364;18.018;2023-07-09T08:40:04;987.05;;;927.30;;
16147;SDS011;8179;59.364;18.018;2023-07-09T08:42:32;1000.88;;;940.40;;
16147;SDS011;8179;59.364;18.018;2023-07-09T08:45:03;1081.43;;;998.90;;
16147;SDS011;8179;59.364;18.018;2023-07-09T08:47:37;1025.90;;;963.63;;
16147;SDS011;8179;59.364;18.018;2023-07-09T08:50:08;921.47;;;870.08;;
16147;SDS011;8179;59.364;18.018;2023-07-09T08:52:36;1014.17;;;951.50;;
16147;SDS011;8179;59.364;18.018;2023-07-09T08:55:04;1062.10;;;990.65;;
16147;SDS011;8179;59.364;18.018;2023-07-09T08:57:33;663.28;;;633.15;;
16147;SDS011;8179;59.364;18.018;2023-07-09T09:00:02;921.50;;;869.03;;
16147;SDS011;8179;59.364;18.018;2023-07-09T09:02:33;903.75;;;852.78;;
16147;SDS011;8179;59.364;18.018;2023-07-09T09:05:03;1050.43;;;982.55;;
16147;SDS011;8179;59.364;18.018;2023-07-09T09:07:39;1004.03;;;944.05;;
16147;SDS011;8179;59.364;18.018;2023-07-09T09:10:07;1011.30;;;947.88;;
16147;SDS011;8179;59.364;18.018;2023-07-09T09:12:37;1032.20;;;971.70;;
16147;SDS011;8179;59.364;18.018;2023-07-09T09:15:09;1028.80;;;963.85;;
16147;SDS011;8179;59.364;18.018;2023-07-09T09:17:37;1061.90;;;993.38;;
16147;SDS011;8179;59.364;18.018;2023-07-09T09:20:06;1079.13;;;998.47;;
16147;SDS011;8179;59.364;18.018;2023-07-09T09:22:36;1032.63;;;969.40;;
16147;SDS011;8179;59.364;18.018;2023-07-09T09:25:11;908.25;;;856.25;;
16147;SDS011;8179;59.364;18.018;2023-07-09T09:27:38;652.15;;;623.17;;
16147;SDS011;8179;59.364;18.018;2023-07-09T09:30:05;1077.32;;;999.90;;
16147;SDS011;8179;59.364;18.018;2023-07-09T09:32:34;1040.55;;;975.28;;
16147;SDS011;8179;59.364;18.018;2023-07-09T09:35:12;939.30;;;885.08;;
16147;SDS011;8179;59.364;18.018;2023-07-09T09:37:39;530.22;;;508.48;;
16147;SDS011;8179;59.364;18.018;2023-07-09T09:40:08;992.70;;;933.42;;
16147;SDS011;8179;59.364;18.018;2023-07-09T09:42:35;878.20;;;831.08;;
16147;SDS011;8179;59.364;18.018;2023-07-09T09:45:01;856.55;;;809.60;;
16147;SDS011;8179;59.364;18.018;2023-07-09T09:47:28;842.35;;;796.22;;
16147;SDS011;8179;59.364;18.018;2023-07-09T09:49:55;918.72;;;864.70;;
16147;SDS011;8179;59.364;18.018;2023-07-09T09:52:26;764.08;;;722.30;;
16147;SDS011;8179;59.364;18.018;2023-07-09T09:54:56;457.23;;;440.50;;
16147;SDS011;8179;59.364;18.018;2023-07-09T09:57:27;544.67;;;521.47;;
16147;SDS011;8179;59.364;18.018;2023-07-09T09:59:54;740.40;;;703.30;;
16147;SDS011;8179;59.364;18.018;2023-07-09T10:02:22;584.53;;;559.13;;
16147;SDS011;8179;59.364;18.018;2023-07-09T10:04:49;419.85;;;404.00;;
16147;SDS011;8179;59.364;18.018;2023-07-09T10:07:18;271.92;;;261.25;;
16147;SDS011;8179;59.364;18.018;2023-07-09T10:09:49;341.55;;;329.23;;
16147;SDS011;8179;59.364;18.018;2023-07-09T10:12:18;398.20;;;383.58;;
16147;SDS011;8179;59.364;18.018;2023-07-09T10:14:49;458.38;;;440.48;;
16147;SDS011;8179;59.364;18.018;2023-07-09T10:17:19;563.58;;;539.28;;
16147;SDS011;8179;59.364;18.018;2023-07-09T10:19:51;232.63;;;225.55;;
16147;SDS011;8179;59.364;18.018;2023-07-09T10:22:22;200.93;;;194.63;;
16147;SDS011;8179;59.364;18.018;2023-07-09T10:24:53;332.83;;;321.40;;
16147;SDS011;8179;59.364;18.018;2023-07-09T10:27:22;391.33;;;377.60;;
16147;SDS011;8179;59.364;18.018;2023-07-09T10:32:44;382.60;;;369.52;;
16147;SDS011;8179;59.364;18.018;2023-07-09T10:35:14;349.58;;;336.65;;
16147;SDS011;8179;59.364;18.018;2023-07-09T10:37:52;174.35;;;168.80;;
16147;SDS011;8179;59.364;18.018;2023-07-09T10:40:24;130.88;;;126.93;;
16147;SDS011;8179;59.364;18.018;2023-07-09T10:42:52;362.75;;;349.80;;
16147;SDS011;8179;59.364;18.018;2023-07-09T10:45:23;370.98;;;357.40;;
16147;SDS011;8179;59.364;18.018;2023-07-09T10:47:53;274.98;;;266.58;;
16147;SDS011;8179;59.364;18.018;2023-07-09T10:50:24;1999.90;;;999.90;;
16147;SDS011;8179;59.364;18.018;2023-07-09T10:52:53;655.60;;;400.73;;
16147;SDS011;8179;59.364;18.018;2023-07-09T10:55:21;225.70;;;217.98;;
16147;SDS011;8179;59.364;18.018;2023-07-09T10:57:54;236.35;;;229.00;;
16147;SDS011;8179;59.364;18.018;2023-07-09T11:00:23;1074.82;;;572.55;;
16147;SDS011;8179;59.364;18.018;2023-07-09T11:02:54;1540.57;;;789.33;;
16147;SDS011;8179;59.364;18.018;2023-07-09T11:05:24;208.75;;;202.13;;
16147;SDS011;8179;59.364;18.018;2023-07-09T11:07:52;338.45;;;326.85;;
16147;SDS011;8179;59.364;18.018;2023-07-09T11:10:24;424.05;;;408.83;;
16147;SDS011;8179;59.364;18.018;2023-07-09T11:12:55;328.55;;;317.25;;
16147;SDS011;8179;59.364;18.018;2023-07-09T11:15:23;397.55;;;383.48;;
16147;SDS011;8179;59.364;18.018;2023-07-09T11:17:51;279.98;;;270.58;;
16147;SDS011;8179;59.364;18.018;2023-07-09T11:20:18;227.07;;;219.63;;
16147;SDS011;8179;59.364;18.018;2023-07-09T11:22:50;287.52;;;278.15;;
16147;SDS011;8179;59.364;18.018;2023-07-09T11:25:26;326.48;;;315.63;;
16147;SDS011;8179;59.364;18.018;2023-07-09T11:28:02;214.50;;;207.85;;
16147;SDS011;8179;59.364;18.018;2023-07-09T11:30:29;1145.00;;;640.28;;
16147;SDS011;8179;59.364;18.018;2023-07-09T11:32:56;734.50;;;476.73;;
16147;SDS011;8179;59.364;18.018;2023-07-09T11:35:24;312.27;;;302.33;;
16147;SDS011;8179;59.364;18.018;2023-07-09T11:37:50;330.52;;;319.58;;
16147;SDS011;8179;59.364;18.018;2023-07-09T11:40:19;1530.32;;;779.35;;
16147;SDS011;8179;59.364;18.018;2023-07-09T11:42:52;1999.90;;;999.90;;
16147;SDS011;8179;59.364;18.018;2023-07-09T11:45:21;227.57;;;220.60;;
16147;SDS011;8179;59.364;18.018;2023-07-09T11:47:51;335.33;;;324.10;;
16147;SDS011;8179;59.364;18.018;2023-07-09T11:50:22;358.85;;;346.10;;
16147;SDS011;8179;59.364;18.018;2023-07-09T11:52:51;435.85;;;419.42;;
16147;SDS011;8179;59.364;18.018;2023-07-09T11:55:20;221.43;;;214.27;;
16147;SDS011;8179;59.364;18.018;2023-07-09T11:57:48;377.85;;;364.17;;
16147;SDS011;8179;59.364;18.018;2023-07-09T12:00:15;454.30;;;437.08;;
16147;SDS011;8179;59.364;18.018;2023-07-09T12:02:43;457.50;;;439.20;;
16147;SDS011;8179;59.364;18.018;2023-07-09T12:05:09;508.95;;;488.25;;
16147;SDS011;8179;59.364;18.018;2023-07-09T12:07:36;600.90;;;573.35;;
16147;SDS011;8179;59.364;18.018;2023-07-09T12:10:03;418.00;;;403.05;;
16147;SDS011;8179;59.364;18.018;2023-07-09T12:12:30;631.13;;;602.50;;
16147;SDS011;8179;59.364;18.018;2023-07-09T12:14:57;493.95;;;474.65;;
16147;SDS011;8179;59.364;18.018;2023-07-09T12:17:25;458.77;;;441.02;;
16147;SDS011;8179;59.364;18.018;2023-07-09T12:19:55;553.10;;;530.33;;
16147;SDS011;8179;59.364;18.018;2023-07-09T12:22:22;347.85;;;336.15;;
16147;SDS011;8179;59.364;18.018;2023-07-09T12:24:49;404.90;;;391.13;;
16147;SDS011;8179;59.364;18.018;2023-07-09T12:27:20;518.63;;;496.90;;
16147;SDS011;8179;59.364;18.018;2023-07-09T12:29:47;521.28;;;497.90;;
16147;SDS011;8179;59.364;18.018;2023-07-09T12:32:16;307.52;;;295.15;;
16147;SDS011;8179;59.364;18.018;2023-07-09T12:34:46;578.45;;;552.67;;
16147;SDS011;8179;59.364;18.018;2023-07-09T12:37:14;509.98;;;488.70;;
16147;SDS011;8179;59.364;18.018;2023-07-09T12:39:41;395.20;;;381.27;;
16147;SDS011;8179;59.364;18.018;2023-07-09T12:42:12;664.05;;;630.67;;
16147;SDS011;8179;59.364;18.018;2023-07-09T12:44:40;638.03;;;608.00;;
16147;SDS011;8179;59.364;18.018;2023-07-09T12:47:07;667.97;;;635.65;;
16147;SDS011;8179;59.364;18.018;2023-07-09T12:49:39;558.92;;;531.97;;
16147;SDS011;8179;59.364;18.018;2023-07-09T12:52:10;742.42;;;704.10;;
16147;SDS011;8179;59.364;18.018;2023-07-09T12:54:39;494.95;;;473.88;;
16147;SDS011;8179;59.364;18.018;2023-07-09T12:57:10;519.00;;;497.70;;
16147;SDS011;8179;59.364;18.018;2023-07-09T12:59:39;503.65;;;482.65;;
16147;SDS011;8179;59.364;18.018;2023-07-09T13:02:09;341.13;;;329.60;;
16147;SDS011;8179;59.364;18.018;2023-07-09T13:04:40;537.55;;;510.70;;
16147;SDS011;8179;59.364;18.018;2023-07-09T13:07:18;445.67;;;428.33;;
16147;SDS011;8179;59.364;18.018;2023-07-09T13:09:53;399.40;;;385.75;;
16147;SDS011;8179;59.364;18.018;2023-07-09T13:12:20;370.17;;;356.73;;
16147;SDS011;8179;59.364;18.018;2023-07-09T13:14:51;485.08;;;466.05;;
16147;SDS011;8179;59.364;18.018;2023-07-09T13:17:18;345.10;;;333.70;;
16147;SDS011;8179;59.364;18.018;2023-07-09T13:19:45;302.15;;;291.58;;
16147;SDS011;8179;59.364;18.018;2023-07-09T13:22:12;326.48;;;315.40;;
16147;SDS011;8179;59.364;18.018;2023-07-09T13:24:39;352.42;;;340.83;;
16147;SDS011;8179;59.364;18.018;2023-07-09T13:27:08;558.03;;;534.08;;
16147;SDS011;8179;59.364;18.018;2023-07-09T13:29:37;445.00;;;427.15;;
16147;SDS011;8179;59.364;18.018;2023-07-09T13:32:07;523.58;;;503.10;;
16147;SDS011;8179;59.364;18.018;2023-07-09T13:34:35;514.47;;;492.15;;
16147;SDS011;8179;59.364;18.018;2023-07-09T13:37:02;342.77;;;330.83;;
16147;SDS011;8179;59.364;18.018;2023-07-09T13:39:28;231.13;;;223.77;;
16147;SDS011;8179;59.364;18.018;2023-07-09T13:41:55;477.88;;;459.48;;
16147;SDS011;8179;59.364;18.018;2023-07-09T13:44:23;324.40;;;313.45;;
16147;SDS011;8179;59.364;18.018;2023-07-09T13:46:51;256.48;;;248.25;;
16147;SDS011;8179;59.364;18.018;2023-07-09T13:49:19;348.95;;;337.33;;
16147;SDS011;8179;59.364;18.018;2023-07-09T13:51:46;227.48;;;220.43;;
16147;SDS011;8179;59.364;18.018;2023-07-09T13:54:15;1575.78;;;823.30;;
16147;SDS011;8179;59.364;18.018;2023-07-09T13:56:42;354.30;;;342.30;;
16147;SDS011;8179;59.364;18.018;2023-07-09T13:59:11;363.10;;;351.13;;
16147;SDS011;8179;59.364;18.018;2023-07-09T14:01:40;384.45;;;371.05;;
16147;SDS011;8179;59.364;18.018;2023-07-09T14:04:08;466.05;;;448.85;;